Time;durP1;ratioP1;P1;durP2;ratioP2;P2;SDS_P1;SDS_P2;PMS_P1;PMS_P2;Temp;Humidity;BMP_temperature;BMP_pressure;BME280_temperature;BME280_humidity;BME280_pressure;Samples;Min_cycle;Max_cycle;Signal;HPM_P1;HPM_P2
2022/12/14 00:00:52;;;;;;;20.08;8.20;;;-5.30;99.90;;;;;;5095494;28;20130;-82
2022/12/14 00:03:18;;;;;;;17.83;8.55;;;-5.30;99.90;;;;;;5095061;28;20504;-82
2022/12/14 00:05:45;;;;;;;19.20;8.40;;;-5.30;99.90;;;;;;5094989;28;20046;-82
2022/12/14 00:08:12;;;;;;;19.08;8.75;;;-5.40;99.90;;;;;;5094931;28;20040;-83
2022/12/14 00:10:39;;;;;;;18.05;7.93;;;-5.40;99.90;;;;;;5095028;28;20036;-82
2022/12/14 00:13:05;;;;;;;20.85;9.88;;;-5.40;99.90;;;;;;5076522;28;20510;-83
2022/12/14 00:15:31;;;;;;;18.75;7.97;;;-5.40;99.90;;;;;;5094864;28;20412;-83
2022/12/14 00:17:59;;;;;;;18.65;8.90;;;-5.40;99.90;;;;;;5094532;28;20040;-83
2022/12/14 00:20:26;;;;;;;19.33;8.13;;;-5.40;99.90;;;;;;5095092;28;20127;-84
2022/12/14 00:22:54;;;;;;;16.25;7.70;;;-5.40;99.90;;;;;;5094403;28;20056;-83
2022/12/14 00:25:20;;;;;;;17.40;8.02;;;-5.50;99.90;;;;;;5094995;28;20374;-84
2022/12/14 00:27:46;;;;;;;19.58;7.88;;;-5.50;99.90;;;;;;5094464;28;20101;-84
2022/12/14 00:30:15;;;;;;;23.10;9.18;;;-5.50;99.90;;;;;;5094987;28;20416;-83
2022/12/14 00:32:41;;;;;;;20.98;8.63;;;-5.60;99.90;;;;;;5094272;28;20432;-84
2022/12/14 00:35:08;;;;;;;24.83;9.55;;;-5.60;99.90;;;;;;5094324;28;20059;-84
2022/12/14 00:37:35;;;;;;;21.50;9.02;;;-5.60;99.90;;;;;;5093152;28;20032;-83
2022/12/14 00:40:01;;;;;;;17.15;7.65;;;-5.60;99.90;;;;;;5094738;28;20097;-84
2022/12/14 00:42:27;;;;;;;18.30;7.75;;;-5.60;99.90;;;;;;5094343;28;20441;-83
2022/12/14 00:44:52;;;;;;;21.08;8.13;;;-5.60;99.90;;;;;;5094785;28;20067;-82
2022/12/14 00:47:18;;;;;;;18.58;7.97;;;-5.70;99.90;;;;;;5094229;28;20043;-82
2022/12/14 00:49:43;;;;;;;18.50;7.97;;;-5.70;99.90;;;;;;5094508;28;20115;-83
2022/12/14 00:52:09;;;;;;;22.85;9.23;;;-5.70;99.90;;;;;;5093964;28;20480;-82
2022/12/14 00:54:35;;;;;;;20.42;8.50;;;-5.70;99.90;;;;;;5075628;28;20093;-82
2022/12/14 00:57:00;;;;;;;20.52;9.10;;;-5.70;99.90;;;;;;5094290;28;20050;-82
2022/12/14 00:59:26;;;;;;;19.75;8.88;;;-5.70;99.90;;;;;;5076139;28;20090;-83
2022/12/14 01:01:52;;;;;;;19.00;7.90;;;-5.80;99.90;;;;;;5076218;28;20083;-83
2022/12/14 01:04:18;;;;;;;19.42;9.20;;;-5.80;99.90;;;;;;5093849;28;20040;-82
2022/12/14 01:06:48;;;;;;;18.13;8.57;;;-5.80;99.90;;;;;;5093759;28;20071;-82
2022/12/14 01:09:14;;;;;;;17.38;8.65;;;-5.90;99.90;;;;;;5094390;28;20462;-82
2022/12/14 01:11:40;;;;;;;15.52;7.07;;;-5.80;99.90;;;;;;5075823;28;20051;-82
2022/12/14 01:14:07;;;;;;;18.33;8.85;;;-5.80;99.90;;;;;;5093710;28;20092;-83
2022/12/14 01:16:33;;;;;;;20.25;8.57;;;-5.80;99.90;;;;;;5093693;28;20051;-82
2022/12/14 01:18:59;;;;;;;20.00;9.23;;;-5.80;99.90;;;;;;5093911;28;20036;-82
2022/12/14 01:21:26;;;;;;;22.92;8.52;;;-5.90;99.90;;;;;;5093480;28;20131;-83
2022/12/14 01:23:57;;;;;;;22.50;8.55;;;-5.80;99.90;;;;;;5093759;28;20454;-83
2022/12/14 01:26:24;;;;;;;18.65;7.63;;;-5.90;99.90;;;;;;5074929;28;20047;-84
2022/12/14 01:28:55;;;;;;;21.48;8.65;;;-5.90;99.90;;;;;;5093915;28;20063;-82
2022/12/14 01:31:25;;;;;;;20.75;8.82;;;-5.90;99.90;;;;;;5093813;28;20051;-83
2022/12/14 01:33:51;;;;;;;18.50;8.30;;;-5.90;99.90;;;;;;5093650;28;20036;-82
2022/12/14 01:36:20;;;;;;;15.57;7.68;;;-5.90;99.90;;;;;;5074998;28;20129;-82
2022/12/14 01:38:47;;;;;;;18.08;8.02;;;-5.50;99.90;;;;;;5093621;28;20044;-82
2022/12/14 01:41:24;;;;;;;20.42;8.95;;;-6.00;99.90;;;;;;5093213;28;20040;-82
2022/12/14 01:43:58;;;;;;;22.45;9.52;;;-6.00;99.90;;;;;;5075252;28;20093;-82
2022/12/14 01:46:38;;;;;;;25.50;9.20;;;-6.00;99.90;;;;;;5092706;28;20119;-83
2022/12/14 01:49:21;;;;;;;17.77;8.27;;;-6.00;99.90;;;;;;5092955;28;20056;-83
2022/12/14 01:51:59;;;;;;;24.08;9.38;;;-6.10;99.90;;;;;;5075010;28;20094;-83
2022/12/14 01:54:31;;;;;;;24.63;8.68;;;-6.00;99.90;;;;;;5075351;28;20055;-83
2022/12/14 01:56:58;;;;;;;16.48;7.13;;;-6.10;99.90;;;;;;5092921;28;20127;-83
2022/12/14 01:59:32;;;;;;;17.60;8.07;;;-6.10;99.90;;;;;;5092591;28;20109;-82
2022/12/14 02:02:02;;;;;;;18.85;8.70;;;-6.10;99.90;;;;;;5075111;28;20160;-83
2022/12/14 02:04:29;;;;;;;16.88;8.88;;;-6.00;99.90;;;;;;5075077;28;20075;-83
2022/12/14 02:06:54;;;;;;;23.38;8.10;;;-6.10;99.90;;;;;;5092965;28;20126;-83
2022/12/14 02:09:26;;;;;;;17.55;7.68;;;-6.10;99.90;;;;;;5091910;28;20918;-83
2022/12/14 02:12:03;;;;;;;20.75;8.70;;;-6.10;99.90;;;;;;5092992;28;20109;-83
2022/12/14 02:14:29;;;;;;;26.05;9.48;;;-6.20;99.90;;;;;;5074518;28;20141;-83
2022/12/14 02:16:56;;;;;;;21.05;8.82;;;-6.20;99.90;;;;;;5093040;28;20043;-82
2022/12/14 02:19:22;;;;;;;19.48;9.18;;;-6.20;99.90;;;;;;5092824;28;20036;-82
2022/12/14 02:22:24;;;;;;;21.30;8.85;;;-6.20;99.90;;;;;;5074754;28;20058;-82
2022/12/14 02:25:41;;;;;;;20.27;8.85;;;-6.20;99.90;;;;;;5092839;28;20465;-82
2022/12/14 02:28:34;;;;;;;16.88;7.78;;;-6.20;99.90;;;;;;4991342;28;20053;-81
2022/12/14 02:31:28;;;;;;;20.65;8.20;;;-6.30;99.90;;;;;;4991567;28;20096;-82
2022/12/14 02:34:19;;;;;;;21.15;8.23;;;-6.40;99.90;;;;;;5007668;28;20056;-83
2022/12/14 02:36:59;;;;;;;22.52;7.63;;;-6.40;99.90;;;;;;4991168;28;20046;-82
2022/12/14 02:39:57;;;;;;;15.13;6.82;;;-6.40;99.90;;;;;;4990969;28;20074;-82
2022/12/14 02:42:33;;;;;;;23.70;8.48;;;-6.40;99.90;;;;;;4991358;28;20105;-82
2022/12/14 02:45:25;;;;;;;19.38;7.88;;;-6.50;99.90;;;;;;4991003;28;20086;-82
2022/12/14 02:47:54;;;;;;;17.02;7.03;;;-6.50;99.90;;;;;;4972696;28;20503;-82
2022/12/14 02:50:33;;;;;;;16.88;7.38;;;-6.50;99.90;;;;;;4972960;28;20063;-82
2022/12/14 02:53:11;;;;;;;17.92;6.88;;;-6.60;99.90;;;;;;4958817;28;20137;-82
2022/12/14 02:55:46;;;;;;;18.50;7.40;;;-6.60;99.90;;;;;;4974887;28;20046;-82
2022/12/14 02:58:24;;;;;;;19.45;7.35;;;-6.60;99.90;;;;;;4991069;28;20054;-83
2022/12/14 03:00:52;;;;;;;21.33;8.27;;;-6.60;99.90;;;;;;4991327;28;20121;-83
2022/12/14 03:03:17;;;;;;;20.10;8.60;;;-6.90;99.90;;;;;;5028458;28;20132;-83
2022/12/14 03:06:13;;;;;;;16.98;7.60;;;-6.70;99.90;;;;;;5096540;28;20086;-83
2022/12/14 03:08:42;;;;;;;23.27;8.48;;;-6.70;99.90;;;;;;5096282;28;20044;-82
2022/12/14 03:11:11;;;;;;;22.33;9.70;;;-6.70;99.90;;;;;;5096087;28;20028;-81
2022/12/14 03:13:45;;;;;;;18.95;8.40;;;-6.60;99.90;;;;;;5077954;28;20185;-82
2022/12/14 03:16:29;;;;;;;17.15;7.78;;;-6.60;99.90;;;;;;5096235;28;20071;-82
2022/12/14 03:19:27;;;;;;;23.83;9.48;;;-6.60;99.90;;;;;;5096085;28;20067;-83
2022/12/14 03:22:04;;;;;;;21.15;8.00;;;-6.60;99.90;;;;;;4993822;28;20078;-83
2022/12/14 03:24:41;;;;;;;18.08;8.25;;;-6.70;99.90;;;;;;4994203;28;20062;-83
2022/12/14 03:27:12;;;;;;;18.02;8.13;;;-6.60;99.90;;;;;;4994456;28;20537;-83
2022/12/14 03:30:11;;;;;;;19.95;8.35;;;-6.60;99.90;;;;;;4977973;28;20487;-82
2022/12/14 03:32:43;;;;;;;21.13;7.10;;;-6.60;99.90;;;;;;4935636;29;20047;-83
2022/12/14 03:35:22;;;;;;;21.67;8.13;;;-6.50;99.90;;;;;;4936134;29;20490;-82
2022/12/14 03:38:07;;;;;;;20.95;7.85;;;-6.60;99.90;;;;;;4936116;29;20107;-82
2022/12/14 03:40:57;;;;;;;18.70;7.78;;;-6.60;99.90;;;;;;4920388;29;20090;-81
2022/12/14 03:43:46;;;;;;;21.75;8.07;;;-6.60;99.90;;;;;;4934833;28;20055;-84
2022/12/14 03:46:19;;;;;;;17.45;7.00;;;-6.60;99.90;;;;;;4920106;29;20067;-83
2022/12/14 03:48:50;;;;;;;17.20;7.53;;;-6.60;99.90;;;;;;4935667;29;20571;-84
2022/12/14 03:51:24;;;;;;;22.52;8.60;;;-6.50;99.90;;;;;;4936003;29;20063;-84
2022/12/14 03:54:05;;;;;;;16.65;6.95;;;-6.50;99.90;;;;;;4934946;29;20059;-83
2022/12/14 03:56:48;;;;;;;15.93;6.80;;;-6.50;99.90;;;;;;4938237;29;20056;-83
2022/12/14 03:59:41;;;;;;;17.90;7.07;;;-6.50;99.90;;;;;;4973236;28;20511;-81
2022/12/14 04:02:25;;;;;;;19.40;8.40;;;-6.50;99.90;;;;;;4974238;28;20534;-82
2022/12/14 04:04:58;;;;;;;18.05;7.20;;;-6.50;99.90;;;;;;4972704;28;20043;-82
2022/12/14 04:07:32;;;;;;;17.38;7.95;;;-6.50;99.90;;;;;;4974259;28;20077;-81
2022/12/14 04:18:58;;;;;;;22.10;7.38;;;-6.70;99.90;;;;;;5002075;28;20072;-81
2022/12/14 04:21:40;;;;;;;21.52;9.52;;;-6.70;99.90;;;;;;5072785;28;20044;-83
2022/12/14 04:27:37;;;;;;;19.63;7.43;;;-6.70;99.90;;;;;;5094927;28;20048;-84
2022/12/14 04:30:06;;;;;;;23.77;7.88;;;-6.80;99.90;;;;;;5071882;28;20489;-83
2022/12/14 04:32:43;;;;;;;18.58;8.32;;;-6.80;99.90;;;;;;5094343;28;20071;-83
2022/12/14 04:35:32;;;;;;;24.38;9.23;;;-6.80;99.90;;;;;;5095052;28;20438;-83
2022/12/14 04:38:15;;;;;;;21.52;9.18;;;-6.80;99.90;;;;;;5094284;28;20047;-83
2022/12/14 04:40:46;;;;;;;21.23;8.80;;;-7.10;99.90;;;;;;5094664;28;20044;-83
2022/12/14 04:43:23;;;;;;;21.25;8.10;;;-7.00;99.90;;;;;;5094677;28;20139;-83
2022/12/14 04:46:00;;;;;;;27.88;9.63;;;-6.90;99.90;;;;;;5094400;28;20480;-84
2022/12/14 04:48:45;;;;;;;26.70;9.98;;;-6.90;99.90;;;;;;5093784;28;20063;-83
2022/12/14 04:51:18;;;;;;;22.67;8.52;;;-6.90;99.90;;;;;;5094528;28;20059;-83
2022/12/14 04:53:48;;;;;;;18.05;8.25;;;-6.90;99.90;;;;;;5093832;28;20059;-82
2022/12/14 04:56:26;;;;;;;18.92;7.53;;;-7.00;99.90;;;;;;5076544;28;20080;-83
2022/12/14 04:58:53;;;;;;;16.92;8.75;;;-7.00;99.90;;;;;;5093953;28;20087;-83
2022/12/14 05:01:34;;;;;;;20.55;8.68;;;-7.00;99.90;;;;;;5094112;28;20424;-83
2022/12/14 05:04:33;;;;;;;21.35;8.27;;;-7.00;99.90;;;;;;5094006;28;20520;-83
2022/12/14 05:07:16;;;;;;;20.75;8.65;;;-7.00;99.90;;;;;;5075898;28;20085;-81
2022/12/14 05:09:58;;;;;;;15.75;7.38;;;-6.90;99.90;;;;;;5093647;28;20079;-83
2022/12/14 05:12:41;;;;;;;20.00;8.30;;;-7.00;99.90;;;;;;5094058;28;20097;-82
2022/12/14 05:15:20;;;;;;;21.08;9.07;;;-7.00;99.90;;;;;;5093771;28;20076;-82
2022/12/14 05:17:46;;;;;;;17.02;7.00;;;-7.00;99.90;;;;;;5075751;28;20058;-84
2022/12/14 05:20:21;;;;;;;19.83;7.45;;;-7.00;99.90;;;;;;5093551;28;20405;-82
2022/12/14 05:22:48;;;;;;;16.50;6.82;;;-7.00;99.90;;;;;;5081539;28;20055;-83
2022/12/14 05:25:14;;;;;;;18.65;8.00;;;-7.10;99.90;;;;;;5073896;28;20130;-83
2022/12/14 05:27:40;;;;;;;18.20;7.25;;;-7.00;99.90;;;;;;5075556;28;20484;-82
2022/12/14 05:30:06;;;;;;;21.17;7.50;;;-7.10;99.90;;;;;;5094610;28;20055;-82
2022/12/14 05:32:32;;;;;;;20.60;8.23;;;-7.00;99.90;;;;;;5093786;28;20040;-82
2022/12/14 05:34:58;;;;;;;20.80;8.13;;;-7.30;99.90;;;;;;5093343;28;20051;-82
2022/12/14 05:37:24;;;;;;;22.20;8.95;;;-7.40;99.90;;;;;;5093568;28;20462;-85
2022/12/14 05:39:49;;;;;;;19.70;8.10;;;-7.30;99.90;;;;;;5075108;28;20051;-84
2022/12/14 05:42:15;;;;;;;19.02;8.13;;;-7.20;99.90;;;;;;5093398;28;20040;-83
2022/12/14 05:44:41;;;;;;;17.55;6.95;;;-7.20;99.90;;;;;;5093299;28;20063;-81
2022/12/14 05:47:07;;;;;;;22.60;9.00;;;-7.10;99.90;;;;;;5093120;28;20036;-83
2022/12/14 05:49:32;;;;;;;18.40;8.32;;;-6.50;99.90;;;;;;5075339;28;20040;-83
2022/12/14 05:51:58;;;;;;;20.90;8.77;;;-5.50;99.90;;;;;;5092848;28;20434;-83
2022/12/14 05:54:24;;;;;;;20.73;8.13;;;-7.20;99.90;;;;;;5092840;28;20044;-83
2022/12/14 05:56:49;;;;;;;24.17;8.93;;;-7.20;99.90;;;;;;5093161;28;20068;-83
2022/12/14 05:59:16;;;;;;;19.20;8.88;;;-7.10;99.90;;;;;;5093535;28;20405;-82
2022/12/14 06:01:43;;;;;;;23.77;9.45;;;-7.40;99.90;;;;;;5074768;28;20044;-83
2022/12/14 06:04:12;;;;;;;19.48;7.97;;;-7.20;99.90;;;;;;5092461;28;20552;-82
2022/12/14 06:06:38;;;;;;;19.90;8.38;;;-7.20;99.90;;;;;;5074548;28;20496;-82
2022/12/14 06:09:09;;;;;;;22.30;8.95;;;-7.20;99.90;;;;;;5108494;28;20043;-83
2022/12/14 06:11:40;;;;;;;18.92;8.45;;;-7.30;99.90;;;;;;5093040;28;20105;-82
2022/12/14 06:14:06;;;;;;;18.17;7.25;;;-7.30;99.90;;;;;;5091937;28;20119;-82
2022/12/14 06:16:33;;;;;;;16.67;6.53;;;-7.50;99.90;;;;;;5092581;28;20036;-82
2022/12/14 06:19:00;;;;;;;19.00;7.60;;;-7.40;99.90;;;;;;5074844;28;20052;-82
2022/12/14 06:21:29;;;;;;;14.98;7.30;;;-7.30;99.90;;;;;;5093022;28;20047;-82
2022/12/14 06:23:55;;;;;;;16.60;6.00;;;-7.40;99.90;;;;;;5092306;28;20064;-82
2022/12/14 06:26:21;;;;;;;18.73;6.80;;;-7.60;99.90;;;;;;5092528;28;20082;-82
2022/12/14 06:28:47;;;;;;;16.05;6.45;;;-7.30;99.90;;;;;;5093317;28;20396;-83
2022/12/14 06:31:19;;;;;;;18.40;7.65;;;-7.40;99.90;;;;;;5093340;28;20610;-83
2022/12/14 06:33:45;;;;;;;17.58;6.50;;;-7.60;99.90;;;;;;5092556;28;20058;-83
2022/12/14 06:36:22;;;;;;;17.73;7.78;;;-7.50;99.90;;;;;;5095683;28;20041;-83
2022/12/14 06:38:55;;;;;;;15.85;7.03;;;-7.50;99.90;;;;;;5096530;28;20050;-83
2022/12/14 06:41:22;;;;;;;19.20;7.25;;;-7.40;99.90;;;;;;5079080;28;20044;-84
2022/12/14 06:43:52;;;;;;;19.00;7.53;;;-7.40;99.90;;;;;;5096675;28;20043;-84
2022/12/14 06:46:20;;;;;;;16.55;7.93;;;-7.40;99.90;;;;;;5096662;28;20127;-83
2022/12/14 06:48:54;;;;;;;21.77;7.75;;;-7.40;99.90;;;;;;5096085;28;20040;-83
2022/12/14 06:51:24;;;;;;;14.63;7.32;;;-7.40;99.90;;;;;;5078560;28;20047;-83
2022/12/14 06:53:51;;;;;;;18.92;8.73;;;-7.40;99.90;;;;;;5096491;28;20055;-84
2022/12/14 06:56:19;;;;;;;17.70;7.63;;;-7.50;99.90;;;;;;5096364;28;20542;-83
2022/12/14 06:58:45;;;;;;;21.60;7.97;;;-6.10;99.90;;;;;;5096288;28;20469;-83
2022/12/14 07:01:13;;;;;;;28.27;10.02;;;-7.40;99.90;;;;;;5096619;28;20036;-83
2022/12/14 07:03:39;;;;;;;20.75;8.00;;;-7.40;99.90;;;;;;5096104;28;20036;-83
2022/12/14 07:06:05;;;;;;;22.48;7.85;;;-7.40;99.90;;;;;;5096172;28;20093;-83
2022/12/14 07:08:33;;;;;;;16.63;6.90;;;-7.40;99.90;;;;;;5078646;28;20044;-83
2022/12/14 07:11:07;;;;;;;21.17;7.93;;;-7.40;99.90;;;;;;5096240;28;20052;-83
2022/12/14 07:13:33;;;;;;;24.20;7.95;;;-7.40;99.90;;;;;;5096074;28;20439;-83
2022/12/14 07:15:59;;;;;;;19.17;7.40;;;-7.50;99.90;;;;;;5077704;28;20051;-83
2022/12/14 07:18:26;;;;;;;22.85;9.00;;;-7.50;99.90;;;;;;5078297;28;20067;-84
2022/12/14 07:20:55;;;;;;;16.45;6.55;;;-7.40;99.90;;;;;;5077736;28;20059;-83
2022/12/14 07:23:21;;;;;;;20.63;8.10;;;-7.60;99.90;;;;;;5095732;28;20055;-84
2022/12/14 07:25:47;;;;;;;18.15;7.68;;;-7.50;99.90;;;;;;5095916;28;20044;-84
2022/12/14 07:28:15;;;;;;;20.63;6.72;;;-7.50;99.90;;;;;;5096137;28;20047;-83
2022/12/14 07:30:41;;;;;;;17.55;7.10;;;-7.50;99.90;;;;;;5095582;28;20472;-82
2022/12/14 07:33:06;;;;;;;19.27;7.93;;;-7.60;99.90;;;;;;5077759;28;20039;-82
2022/12/14 07:35:35;;;;;;;17.75;7.95;;;-7.60;99.90;;;;;;5095495;28;20042;-83
2022/12/14 07:38:02;;;;;;;17.38;7.05;;;-7.50;99.90;;;;;;5077506;28;20047;-83
2022/12/14 07:40:28;;;;;;;20.27;8.18;;;-7.60;99.90;;;;;;5077121;28;20047;-83
2022/12/14 07:42:54;;;;;;;18.65;7.57;;;-7.60;99.90;;;;;;5077729;28;20043;-82
2022/12/14 07:45:20;;;;;;;17.17;7.35;;;-7.60;99.90;;;;;;5094891;28;20508;-84
2022/12/14 07:47:45;;;;;;;15.80;7.03;;;-6.30;99.90;;;;;;5094524;28;20097;-86
2022/12/14 07:50:11;;;;;;;22.38;7.97;;;-7.70;99.90;;;;;;5095596;28;20044;-86
2022/12/14 07:52:37;;;;;;;25.75;9.40;;;-7.60;99.90;;;;;;5095213;28;20032;-84
2022/12/14 07:55:03;;;;;;;22.02;7.88;;;-5.00;99.90;;;;;;5095569;28;20044;-85
2022/12/14 07:57:28;;;;;;;18.45;7.78;;;-7.60;99.90;;;;;;5095201;28;20392;-84
2022/12/14 07:59:54;;;;;;;19.63;8.82;;;-7.80;99.90;;;;;;5095519;28;20055;-83
2022/12/14 08:02:20;;;;;;;22.55;8.43;;;-7.60;99.90;;;;;;5077161;28;20129;-82
2022/12/14 08:04:46;;;;;;;17.95;7.13;;;-7.60;99.90;;;;;;5095245;28;20492;-83
2022/12/14 08:07:11;;;;;;;20.10;7.68;;;-7.60;99.90;;;;;;5076989;28;20433;-82
2022/12/14 08:09:40;;;;;;;21.05;6.75;;;-7.50;99.90;;;;;;5077765;28;20062;-82
2022/12/14 08:12:05;;;;;;;19.30;8.10;;;-6.10;99.90;;;;;;5095277;28;20111;-83
2022/12/14 08:14:31;;;;;;;16.85;6.72;;;-7.70;99.90;;;;;;5076451;28;20447;-82
2022/12/14 08:16:57;;;;;;;17.15;7.85;;;-6.90;99.90;;;;;;5095217;28;20422;-82
2022/12/14 08:19:22;;;;;;;17.70;7.13;;;-6.60;99.90;;;;;;5094404;28;20486;-82
2022/12/14 08:21:52;;;;;;;19.65;7.25;;;-7.60;99.90;;;;;;5095298;28;20393;-83
2022/12/14 08:24:19;;;;;;;18.75;7.38;;;-7.50;99.90;;;;;;5094319;28;20079;-82
2022/12/14 08:26:45;;;;;;;20.35;7.95;;;-7.50;99.90;;;;;;5095038;28;20481;-83
2022/12/14 08:29:13;;;;;;;18.38;7.75;;;-8.60;99.90;;;;;;5076322;28;20040;-83
2022/12/14 08:31:39;;;;;;;18.30;7.30;;;-6.80;99.90;;;;;;5094264;28;20036;-83
2022/12/14 08:34:05;;;;;;;15.57;7.93;;;-7.50;99.90;;;;;;5076395;28;20040;-81
2022/12/14 08:36:33;;;;;;;22.90;6.97;;;-7.40;99.90;;;;;;5094327;28;20044;-82
2022/12/14 08:39:04;;;;;;;17.48;7.60;;;-7.40;99.90;;;;;;5093953;28;20069;-85
2022/12/14 08:41:30;;;;;;;20.17;7.63;;;-5.60;99.90;;;;;;5095135;28;20040;-82
2022/12/14 08:44:00;;;;;;;21.98;7.15;;;-7.40;99.90;;;;;;5094732;28;20054;-82
2022/12/14 08:46:27;;;;;;;17.63;6.80;;;-7.30;99.90;;;;;;5094705;28;20046;-83
2022/12/14 08:48:53;;;;;;;17.42;7.07;;;-5.60;99.90;;;;;;5093660;28;20493;-82
2022/12/14 08:51:20;;;;;;;16.38;8.23;;;-7.20;99.90;;;;;;5093717;28;20050;-82
2022/12/14 08:53:46;;;;;;;18.58;8.48;;;-7.20;99.90;;;;;;5076435;28;20058;-82
2022/12/14 08:56:16;;;;;;;15.32;6.00;;;-7.10;99.90;;;;;;5076292;28;20055;-83
2022/12/14 08:58:42;;;;;;;17.48;7.90;;;-7.10;99.90;;;;;;5092949;28;20089;-81
2022/12/14 09:01:12;;;;;;;19.90;8.18;;;-7.00;99.90;;;;;;5093917;28;20415;-82
2022/12/14 09:03:43;;;;;;;22.40;8.25;;;-7.00;99.90;;;;;;5094049;28;20040;-80
2022/12/14 09:06:11;;;;;;;18.13;7.03;;;-6.90;99.90;;;;;;5094179;28;20071;-82
2022/12/14 09:08:37;;;;;;;18.85;7.78;;;-6.80;99.90;;;;;;5097633;28;20043;-82
2022/12/14 09:11:04;;;;;;;19.30;7.78;;;-6.80;99.90;;;;;;5094528;28;20062;-82
2022/12/14 09:13:31;;;;;;;18.30;7.88;;;-6.70;99.90;;;;;;5076206;28;20404;-85
2022/12/14 09:16:03;;;;;;;20.33;8.15;;;-6.20;99.90;;;;;;5075334;28;20044;-83
2022/12/14 09:18:30;;;;;;;17.60;8.65;;;-6.60;99.90;;;;;;5093923;28;20052;-83
2022/12/14 09:20:56;;;;;;;21.30;8.55;;;-6.50;99.90;;;;;;5076003;28;20044;-81
2022/12/14 09:23:23;;;;;;;19.95;6.97;;;-6.50;99.90;;;;;;5076099;28;20123;-84
2022/12/14 09:26:19;;;;;;;14.68;6.25;;;-6.40;99.90;;;;;;5093427;28;20043;-84
2022/12/14 09:28:47;;;;;;;17.00;6.57;;;-6.40;99.90;;;;;;4992366;28;20054;-85
2022/12/14 09:31:15;;;;;;;20.23;7.63;;;-6.30;99.90;;;;;;4992497;28;20043;-84
2022/12/14 09:33:41;;;;;;;12.27;6.00;;;-6.20;99.90;;;;;;4992520;28;20062;-85
2022/12/14 09:36:07;;;;;;;16.17;6.38;;;-6.10;99.90;;;;;;4976202;28;20098;-85
2022/12/14 09:38:35;;;;;;;20.25;6.47;;;-6.10;99.90;;;;;;4992118;28;20054;-82
2022/12/14 09:41:12;;;;;;;12.27;5.90;;;-6.00;99.90;;;;;;4992284;28;20147;-82
2022/12/14 09:43:41;;;;;;;13.88;5.80;;;-5.90;99.90;;;;;;4991991;28;20046;-82
2022/12/14 09:46:46;;;;;;;19.02;7.40;;;-5.80;99.90;;;;;;4991910;28;20507;-82
2022/12/14 09:49:52;;;;;;;20.77;7.75;;;-5.70;99.90;;;;;;4991760;28;20392;-82
2022/12/14 09:52:28;;;;;;;21.65;7.22;;;-5.60;99.90;;;;;;4972331;28;20058;-84
2022/12/14 09:54:55;;;;;;;17.88;7.15;;;-5.60;99.90;;;;;;4956194;28;20089;-82
2022/12/14 09:57:35;;;;;;;18.95;7.20;;;-5.50;99.90;;;;;;4972512;28;20532;-82
2022/12/14 10:00:02;;;;;;;14.85;6.80;;;-5.40;99.90;;;;;;4972423;28;20137;-82
2022/12/14 10:02:59;;;;;;;16.52;5.97;;;-5.40;99.90;;;;;;4972169;28;20140;-82
2022/12/14 10:05:42;;;;;;;;;;;-5.30;99.90;;;;;;4984997;28;20069;-80
2022/12/14 10:08:17;;;;;;;13.23;5.25;;;-5.20;99.90;;;;;;4992130;28;20417;-81
2022/12/14 10:10:59;;;;;;;17.80;6.20;;;-5.10;99.90;;;;;;4991393;28;20121;-82
2022/12/14 10:13:37;;;;;;;13.40;6.13;;;-5.10;99.90;;;;;;4975234;28;20145;-83
2022/12/14 10:16:15;;;;;;;17.90;7.60;;;-5.00;99.90;;;;;;4991353;28;20067;-82
2022/12/14 10:19:17;;;;;;;14.55;6.05;;;-4.90;99.90;;;;;;4991521;28;20113;-81
2022/12/14 10:22:15;;;;;;;18.80;7.32;;;-4.80;99.90;;;;;;4975264;28;20042;-82
2022/12/14 10:24:48;;;;;;;21.55;7.72;;;-4.70;99.90;;;;;;4991319;28;20046;-82
2022/12/14 10:27:22;;;;;;;25.52;7.75;;;-4.50;99.90;;;;;;5011208;28;20046;-83
2022/12/14 10:29:56;;;;;;;25.85;8.85;;;-4.50;99.90;;;;;;5068989;28;20063;-82
2022/12/14 10:32:40;;;;;;;26.73;8.32;;;-4.40;99.90;;;;;;5093143;28;20040;-82
2022/12/14 10:35:25;;;;;;;19.65;7.93;;;-4.20;99.90;;;;;;5093173;28;20048;-81
2022/12/14 10:38:30;;;;;;;22.17;7.75;;;-4.10;99.90;;;;;;5093193;28;20036;-84
2022/12/14 10:41:06;;;;;;;23.08;9.18;;;-4.10;99.90;;;;;;5074298;28;20392;-83
2022/12/14 10:43:42;;;;;;;25.70;10.30;;;-4.00;99.90;;;;;;5092942;28;20051;-83
2022/12/14 10:46:32;;;;;;;22.92;9.75;;;-3.90;99.90;;;;;;5092785;28;20040;-83
2022/12/14 10:49:09;;;;;;;21.33;10.02;;;-3.80;99.90;;;;;;5092988;28;20051;-83
2022/12/14 10:51:41;;;;;;;32.30;10.27;;;-3.70;99.90;;;;;;5093087;28;20164;-82
2022/12/14 10:54:26;;;;;;;29.35;11.52;;;-3.70;99.90;;;;;;5092742;28;20485;-81
2022/12/14 10:56:52;;;;;;;24.25;9.70;;;-3.50;99.90;;;;;;5092885;28;20118;-82
2022/12/14 10:59:21;;;;;;;17.90;8.80;;;-3.40;99.90;;;;;;5092586;28;20549;-82
2022/12/14 11:02:07;;;;;;;25.35;8.80;;;-3.40;99.90;;;;;;5057924;28;20044;-83
2022/12/14 11:04:32;;;;;;;;;;;-3.30;99.90;;;;;;5093390;28;20097;-82
2022/12/14 11:06:59;;;;;;;;;;;-3.30;99.90;;;;;;5075177;28;19919;-82
2022/12/14 11:09:25;;;;;;;22.90;8.90;;;-3.20;99.90;;;;;;5074716;28;20381;-83
2022/12/14 11:11:57;;;;;;;27.10;10.32;;;-3.10;99.90;;;;;;5074788;28;20066;-82
2022/12/14 11:14:24;;;;;;;19.92;8.32;;;-3.10;99.90;;;;;;5074480;28;20079;-82
2022/12/14 11:16:49;;;;;;;20.27;8.68;;;-3.00;99.90;;;;;;5092760;28;20097;-83
2022/12/14 11:19:21;;;;;;;18.55;7.43;;;-2.90;99.90;;;;;;5092463;28;20040;-83
2022/12/14 11:21:48;;;;;;;17.92;7.40;;;-2.90;99.90;;;;;;5092091;28;20400;-83
2022/12/14 11:24:23;;;;;;;24.33;9.77;;;-2.80;99.90;;;;;;5096043;28;20138;-85
2022/12/14 11:26:51;;;;;;;16.17;7.60;;;-2.70;99.90;;;;;;5096364;28;20048;-82
2022/12/14 11:29:31;;;;;;;15.40;7.53;;;-2.60;99.90;;;;;;5096046;28;20124;-83
2022/12/14 11:31:57;;;;;;;14.10;6.28;;;-2.50;99.90;;;;;;5077750;28;20083;-85
2022/12/14 11:34:39;;;;;;;16.55;7.55;;;-2.50;99.90;;;;;;5095967;28;20082;-83
2022/12/14 11:37:27;;;;;;;12.93;6.55;;;-2.40;99.90;;;;;;5075792;28;20048;-81
2022/12/14 11:40:03;;;;;;;20.52;7.65;;;-2.30;99.90;;;;;;5075680;28;20048;-81
2022/12/14 11:42:29;;;;;;;24.88;9.85;;;-1.40;99.90;;;;;;5057527;28;20040;-83
2022/12/14 11:45:24;;;;;;;23.33;9.93;;;-2.10;99.90;;;;;;5075533;28;20087;-81
2022/12/14 11:48:09;;;;;;;23.40;10.70;;;-2.00;99.90;;;;;;5086158;28;20047;-84
2022/12/14 11:50:35;;;;;;;22.05;9.48;;;-1.00;99.90;;;;;;5095539;28;20040;-83
2022/12/14 11:53:13;;;;;;;20.25;9.45;;;-0.70;99.90;;;;;;5095704;28;20054;-81
2022/12/14 11:55:43;;;;;;;25.85;10.90;;;-1.70;99.90;;;;;;5095390;28;20047;-85
2022/12/14 11:58:37;;;;;;;24.85;9.60;;;-1.70;99.90;;;;;;5095003;28;20044;-86
2022/12/14 12:01:13;;;;;;;24.45;9.60;;;-1.60;99.90;;;;;;5085531;28;20131;-81
2022/12/14 12:03:49;;;;;;;22.15;8.98;;;-1.60;99.90;;;;;;5095266;28;20043;-81
2022/12/14 12:06:23;;;;;;;16.40;8.00;;;-1.60;99.90;;;;;;5094750;28;20124;-81
2022/12/14 12:09:00;;;;;;;17.30;8.38;;;-1.50;99.90;;;;;;5095761;28;20072;-82
2022/12/14 12:11:29;;;;;;;24.83;9.77;;;-1.50;99.90;;;;;;5095499;28;20043;-80
2022/12/14 12:14:02;;;;;;;26.48;11.65;;;-0.20;99.90;;;;;;5095276;28;20040;-82
2022/12/14 12:16:31;;;;;;;21.52;8.05;;;-1.40;99.90;;;;;;5094640;28;20040;-81
2022/12/14 12:19:05;;;;;;;16.95;7.70;;;-1.30;99.90;;;;;;5095069;28;20084;-83
2022/12/14 12:21:37;;;;;;;20.88;9.00;;;-1.30;99.90;;;;;;5095018;28;20046;-82
2022/12/14 12:24:06;;;;;;;19.25;8.98;;;-1.30;99.90;;;;;;5095132;28;20048;-81
2022/12/14 12:26:50;;;;;;;24.23;10.68;;;-1.20;99.90;;;;;;5077014;28;20040;-81
2022/12/14 12:29:39;;;;;;;23.83;10.55;;;-1.10;99.90;;;;;;5094845;28;20035;-82
2022/12/14 12:32:32;;;;;;;21.85;9.32;;;-1.10;99.90;;;;;;5076316;28;20044;-82
2022/12/14 12:35:07;;;;;;;18.20;7.65;;;-1.10;99.90;;;;;;5093819;28;20047;-81
2022/12/14 12:37:40;;;;;;;15.30;6.93;;;-1.20;99.90;;;;;;5094804;28;20040;-80
2022/12/14 12:40:32;;;;;;;21.38;8.68;;;-1.20;99.90;;;;;;5094459;28;20084;-85
2022/12/14 12:43:25;;;;;;;16.67;7.65;;;-1.20;99.90;;;;;;5094270;28;20044;-82
2022/12/14 12:45:57;;;;;;;13.85;6.65;;;-1.30;99.90;;;;;;5076682;28;20147;-82
2022/12/14 12:48:53;;;;;;;15.18;6.45;;;-1.30;99.90;;;;;;5094647;28;20036;-80
2022/12/14 12:51:24;;;;;;;16.10;6.18;;;-1.30;99.90;;;;;;5094275;28;20044;-79
2022/12/14 12:53:57;;;;;;;20.02;7.22;;;-1.40;99.90;;;;;;5087778;28;20048;-81
2022/12/14 12:56:50;;;;;;;14.20;6.45;;;-1.40;99.90;;;;;;5094509;28;20497;-81
2022/12/14 12:59:30;;;;;;;18.33;6.75;;;-1.40;99.90;;;;;;5094580;28;20048;-79
2022/12/14 13:02:22;;;;;;;15.70;7.55;;;-1.40;99.90;;;;;;5094554;28;20405;-80
2022/12/14 13:04:50;;;;;;;16.88;6.95;;;-1.50;99.90;;;;;;5094056;28;20115;-81
2022/12/14 13:07:26;;;;;;;20.73;7.95;;;-1.50;99.90;;;;;;5059039;28;20122;-81
2022/12/14 13:10:01;;;;;;;15.70;7.10;;;-1.40;99.90;;;;;;5094170;28;20040;-83
2022/12/14 13:12:41;;;;;;;15.77;7.28;;;-1.40;99.90;;;;;;5075741;28;20113;-79
2022/12/14 13:15:35;;;;;;;15.32;7.40;;;-1.40;99.90;;;;;;5078559;28;20047;-81
2022/12/14 13:18:29;;;;;;;16.58;6.72;;;-1.40;99.90;;;;;;5092729;28;20051;-83
2022/12/14 13:20:55;;;;;;;17.10;6.90;;;-1.50;99.90;;;;;;5092407;28;20402;-83